Time;durP1;ratioP1;P1;durP2;ratioP2;P2;SDS_P1;SDS_P2;PMS_P1;PMS_P2;Temp;Humidity;BMP_temperature;BMP_pressure;BME280_temperature;BME280_humidity;BME280_pressure;Samples;Min_cycle;Max_cycle;Signal;HPM_P1;HPM_P2
2022/09/14 00:01:00;;;;;;;2.10;1.80;;;20.10;99.90;;;19.48;87.62;96460.03;5051597;28;20416;-73
2022/09/14 00:03:27;;;;;;;3.63;1.90;;;20.10;99.90;;;19.48;88.31;96461.94;5050809;28;20974;-73
2022/09/14 00:05:53;;;;;;;2.03;1.80;;;20.10;99.90;;;19.48;89.17;96468.09;5051280;28;20475;-73
2022/09/14 00:08:18;;;;;;;2.70;1.80;;;20.10;99.90;;;19.48;88.07;96462.72;5050753;28;20890;-73
2022/09/14 00:10:45;;;;;;;4.20;2.07;;;20.10;99.90;;;19.49;87.51;96472.34;5051295;28;20401;-72
2022/09/14 00:13:15;;;;;;;2.53;1.60;;;20.10;99.90;;;19.50;88.94;96470.44;5050621;28;20470;-74
2022/09/14 00:15:45;;;;;;;1.70;1.50;;;20.10;99.90;;;19.51;88.55;96455.94;5051273;28;20397;-74
2022/09/14 00:18:11;;;;;;;3.15;1.80;;;20.20;99.90;;;19.54;89.25;96449.91;5051123;28;20400;-74
2022/09/14 00:20:38;;;;;;;4.17;1.80;;;20.10;99.90;;;19.54;83.63;96449.91;5051331;28;20980;-73
2022/09/14 00:23:04;;;;;;;2.35;1.80;;;20.20;99.90;;;19.54;86.91;96444.53;5050455;28;20393;-74
2022/09/14 00:25:31;;;;;;;1.95;1.60;;;20.20;99.90;;;19.55;87.15;96441.50;5051131;28;20412;-74
2022/09/14 00:27:57;;;;;;;3.47;1.80;;;20.20;99.90;;;19.58;88.79;96426.63;5051064;28;20414;-75
2022/09/14 00:30:23;;;;;;;2.83;2.00;;;20.20;99.90;;;19.60;88.96;96411.00;5050960;28;20405;-73
2022/09/14 00:32:50;;;;;;;2.47;1.90;;;20.20;99.90;;;19.60;89.67;96411.78;5050329;28;20875;-74
2022/09/14 00:35:17;;;;;;;2.63;1.85;;;20.20;99.90;;;19.60;89.48;96416.34;5050956;28;20409;-73
2022/09/14 00:37:44;;;;;;;2.63;1.92;;;20.20;99.90;;;19.63;90.96;96415.69;5050817;28;20497;-74
2022/09/14 00:40:11;;;;;;;5.00;1.90;;;20.20;99.90;;;19.61;86.96;96410.66;5033160;28;20412;-74
2022/09/14 00:42:37;;;;;;;3.30;2.00;;;20.30;99.90;;;19.57;81.78;96407.06;5050684;28;20405;-74
2022/09/14 00:45:12;;;;;;;10.20;2.30;;;20.20;99.90;;;19.53;78.63;96405.38;5050329;28;20551;-74
2022/09/14 00:47:38;;;;;;;2.42;1.70;;;20.10;99.90;;;19.50;85.48;96401.44;5050891;28;20397;-74
2022/09/14 00:50:05;;;;;;;3.40;1.73;;;20.10;99.90;;;19.49;88.16;96402.56;5050786;28;20421;-74
2022/09/14 00:52:36;;;;;;;3.80;1.90;;;20.10;99.90;;;19.51;89.72;96400.34;5050393;28;20400;-74
2022/09/14 00:55:08;;;;;;;8.25;2.00;;;20.10;99.90;;;19.52;89.07;96393.84;5050320;28;20401;-74
2022/09/14 00:57:38;;;;;;;2.73;1.97;;;20.10;99.90;;;19.53;89.89;96389.28;5050396;28;20420;-74
2022/09/14 01:00:09;;;;;;;3.85;1.98;;;20.10;99.90;;;19.53;90.55;96367.81;5050685;28;20398;-74
2022/09/14 01:02:35;;;;;;;3.93;1.70;;;20.10;99.90;;;19.53;90.83;96362.44;5050164;28;20457;-75
2022/09/14 01:05:02;;;;;;;3.08;1.90;;;20.10;99.90;;;19.52;90.87;96360.88;5050124;28;20400;-74
2022/09/14 01:08:01;;;;;;;3.70;1.90;;;20.10;99.90;;;19.49;90.04;96373.03;5050363;28;20398;-74
2022/09/14 01:10:51;;;;;;;3.70;1.90;;;20.20;99.90;;;19.49;91.35;96361.50;5043334;28;20435;-72
2022/09/14 01:13:39;;;;;;;2.50;1.73;;;20.20;99.90;;;19.48;92.00;96350.00;5049822;28;20463;-73
2022/09/14 01:16:18;;;;;;;3.13;2.10;;;20.10;99.90;;;19.49;92.94;96342.72;5050296;28;20413;-73
2022/09/14 01:18:49;;;;;;;3.38;1.92;;;20.10;99.90;;;19.48;92.90;96349.22;5053370;28;20534;-73
2022/09/14 01:21:22;;;;;;;2.47;1.77;;;20.10;99.90;;;19.48;94.28;96379.50;5054357;28;20402;-73
2022/09/14 01:23:56;;;;;;;3.10;2.10;;;20.10;99.90;;;19.47;94.21;96466.53;5029832;28;20403;-73
2022/09/14 01:27:23;;;;;;;4.45;2.50;;;20.10;99.90;;;19.46;92.29;96461.47;5030353;28;20433;-72
2022/09/14 01:29:58;;;;;;;23.40;3.80;;;20.10;99.90;;;19.22;95.63;96452.22;5032291;28;20807;-73
2022/09/14 01:32:30;;;;;;;18.92;4.75;;;19.90;99.90;;;18.89;95.73;96475.50;5049206;28;20412;-71
2022/09/14 01:35:06;;;;;;;21.42;5.30;;;19.60;99.90;;;18.61;99.30;96459.13;5061364;28;20476;-73
2022/09/14 01:37:39;;;;;;;18.05;5.85;;;19.30;99.90;;;18.43;100.00;96444.22;5070096;28;20420;-73
2022/09/14 01:40:13;;;;;;;19.57;6.60;;;19.10;99.90;;;18.35;100.00;96448.50;5070204;28;20407;-73
2022/09/14 01:42:44;;;;;;;26.53;7.80;;;19.10;99.90;;;18.27;100.00;96433.25;5069856;28;20399;-72
2022/09/14 01:45:15;;;;;;;20.00;6.67;;;19.00;99.90;;;18.22;100.00;96438.03;5070114;28;20430;-73
2022/09/14 01:47:46;;;;;;;21.60;8.55;;;18.90;99.90;;;18.17;100.00;96447.84;5070072;28;20409;-73
2022/09/14 01:50:17;;;;;;;23.55;9.60;;;18.90;99.90;;;18.20;100.00;96449.06;5070029;28;20400;-73
2022/09/14 01:52:49;;;;;;;34.42;12.27;;;18.90;99.90;;;18.23;100.00;96435.03;5069417;28;20764;-73
2022/09/14 01:55:23;;;;;;;26.23;10.88;;;19.00;99.90;;;18.29;100.00;96436.41;5070157;28;20857;-73
2022/09/14 01:57:58;;;;;;;24.00;11.13;;;19.00;99.90;;;18.22;100.00;96441.50;5070011;28;20400;-73
2022/09/14 02:00:24;;;;;;;25.85;10.50;;;18.90;99.90;;;18.16;100.00;96446.25;5069994;28;20399;-73
2022/09/14 02:02:55;;;;;;;22.02;9.63;;;18.90;99.90;;;18.19;100.00;96447.50;5087654;22;20833;-74
2022/09/14 02:05:29;;;;;;;21.42;11.10;;;18.90;99.90;;;18.04;100.00;96440.78;5089526;28;20397;-75
2022/09/14 02:07:55;;;;;;;34.70;13.85;;;18.80;99.90;;;18.06;100.00;96451.97;5088823;28;20752;-75
2022/09/14 02:10:23;;;;;;;45.25;16.02;;;18.80;99.90;;;18.07;100.00;96461.56;5090011;28;20896;-75
2022/09/14 02:12:51;;;;;;;40.67;16.15;;;18.80;99.90;;;18.07;100.00;96461.56;5088020;28;20436;-75
2022/09/14 02:15:17;;;;;;;37.15;16.00;;;18.80;99.90;;;17.97;100.00;96455.78;5089877;28;20867;-76
2022/09/14 02:17:43;;;;;;;33.45;14.65;;;18.70;99.90;;;17.95;100.00;96445.41;5089938;28;20906;-76
2022/09/14 02:20:16;;;;;;;22.98;13.18;;;18.70;99.90;;;17.86;100.00;96444.66;5089862;28;20404;-76
2022/09/14 02:22:42;;;;;;;53.00;18.83;;;18.60;99.90;;;17.78;100.00;96440.09;5088218;28;20473;-76
2022/09/14 02:25:08;;;;;;;40.47;17.30;;;18.50;99.90;;;17.76;100.00;96431.59;5089744;28;20398;-75
2022/09/14 02:27:34;;;;;;;40.50;20.17;;;18.50;99.90;;;17.88;100.00;96444.31;5088647;28;20414;-75
2022/09/14 02:30:02;;;;;;;39.53;17.17;;;18.50;99.90;;;17.83;100.00;96442.59;5090693;28;20463;-74
2022/09/14 02:32:36;;;;;;;42.72;17.98;;;18.60;99.90;;;17.75;100.00;96451.44;5093227;28;20492;-75
2022/09/14 02:35:12;;;;;;;50.17;20.25;;;18.50;99.90;;;17.76;100.00;96448.44;5092998;28;20416;-75
2022/09/14 02:37:49;;;;;;;39.33;18.67;;;18.50;99.90;;;17.81;100.00;96458.22;5095543;28;20415;-75
2022/09/14 02:40:25;;;;;;;39.80;18.63;;;18.50;99.90;;;17.91;100.00;96457.06;5097452;28;20390;-74
2022/09/14 02:43:03;;;;;;;38.22;18.23;;;18.50;99.90;;;17.73;100.00;96441.06;5084879;28;21210;-75
2022/09/14 02:45:38;;;;;;;43.45;18.33;;;18.50;99.90;;;17.79;100.00;96455.84;5102759;28;20883;-75
2022/09/14 02:48:11;;;;;;;37.03;18.30;;;18.50;99.90;;;17.76;100.00;96455.69;5105123;28;20862;-74
2022/09/14 02:50:49;;;;;;;46.40;21.73;;;18.50;99.90;;;17.89;100.00;96460.09;5113546;28;20948;-74
2022/09/14 02:53:21;;;;;;;34.25;17.98;;;18.60;99.90;;;17.81;100.00;96446.72;5112834;28;20419;-74
2022/09/14 02:55:51;;;;;;;46.03;20.40;;;18.60;99.90;;;17.86;100.00;96454.56;5113478;28;20493;-74
2022/09/14 02:58:17;;;;;;;47.08;21.27;;;18.60;99.90;;;17.88;100.00;96442.44;5113432;28;20401;-74
2022/09/14 03:00:47;;;;;;;51.88;22.58;;;18.60;99.90;;;17.90;100.00;96432.16;5113389;28;20436;-74
2022/09/14 03:03:16;;;;;;;44.53;21.48;;;18.60;99.90;;;18.00;100.00;96414.97;5112664;28;20392;-74
2022/09/14 03:05:43;;;;;;;55.00;22.30;;;18.60;99.90;;;17.86;100.00;96420.53;5113319;28;20457;-74
2022/09/14 03:08:09;;;;;;;44.92;20.83;;;18.60;99.90;;;17.87;100.00;96413.31;5113298;28;20457;-74
2022/09/14 03:10:36;;;;;;;68.15;25.92;;;18.60;99.90;;;17.87;100.00;96406.06;5129065;27;20403;-75
2022/09/14 03:13:02;;;;;;;41.53;19.42;;;18.60;99.90;;;17.87;100.00;96411.41;5112542;28;20407;-74
2022/09/14 03:15:29;;;;;;;58.80;22.92;;;18.50;99.90;;;17.90;100.00;96424.16;5113065;28;20411;-74
2022/09/14 03:17:56;;;;;;;109.83;30.63;;;18.60;99.90;;;17.92;100.00;96416.59;5113030;28;20553;-74
2022/09/14 03:20:24;;;;;;;71.90;25.35;;;18.60;99.90;;;17.89;100.00;96411.09;5113007;28;20799;-74
2022/09/14 03:22:51;;;;;;;58.47;22.87;;;18.60;99.90;;;17.90;100.00;96416.09;5112312;28;20409;-74
2022/09/14 03:25:18;;;;;;;50.63;22.25;;;18.60;99.90;;;17.88;100.00;96390.78;5112900;28;20438;-74
2022/09/14 03:27:49;;;;;;;49.90;22.13;;;18.60;99.90;;;17.88;100.00;96388.91;5102638;28;20489;-74
2022/09/14 03:30:16;;;;;;;44.20;21.42;;;18.60;99.90;;;17.88;100.00;96388.91;5100793;28;20398;-74
2022/09/14 03:32:42;;;;;;;44.22;20.75;;;18.50;99.90;;;17.74;100.00;96383.72;5103303;28;20404;-74
2022/09/14 03:35:09;;;;;;;46.50;23.10;;;18.50;99.90;;;17.73;100.00;96387.53;5096636;28;20416;-74
2022/09/14 03:37:37;;;;;;;39.83;21.47;;;18.40;99.90;;;17.74;100.00;96386.41;5103694;28;20441;-74
2022/09/14 03:40:05;;;;;;;41.47;21.20;;;18.40;99.90;;;17.65;100.00;96387.56;5128548;27;20393;-74
2022/09/14 03:42:31;;;;;;;45.90;21.35;;;18.40;99.90;;;17.56;100.00;96376.06;5112296;28;20405;-74
2022/09/14 03:44:57;;;;;;;48.13;23.03;;;18.30;99.90;;;17.54;100.00;96372.91;5112090;28;20396;-74
2022/09/14 03:47:23;;;;;;;60.17;26.40;;;18.30;99.90;;;17.58;100.00;96369.31;5103687;28;20436;-74
2022/09/14 03:49:49;;;;;;;60.28;26.02;;;18.30;99.90;;;17.63;100.00;96366.47;5091215;28;20778;-73
2022/09/14 03:52:17;;;;;;;50.93;24.20;;;18.30;99.90;;;17.61;100.00;96368.66;5091562;28;20398;-74
2022/09/14 03:54:43;;;;;;;61.10;25.58;;;18.30;99.90;;;17.55;100.00;96361.13;5082647;28;20972;-73
2022/09/14 03:57:09;;;;;;;55.77;26.33;;;18.30;99.90;;;17.55;100.00;96353.09;5094754;28;20398;-74
2022/09/14 03:59:35;;;;;;;53.30;23.95;;;18.30;99.90;;;17.58;100.00;96355.91;5081661;28;20909;-74
2022/09/14 04:02:02;;;;;;;41.72;22.23;;;18.30;99.90;;;17.61;100.00;96355.28;5080089;28;20415;-73
2022/09/14 04:04:28;;;;;;;50.35;25.40;;;18.30;99.90;;;17.65;100.00;96358.91;5080588;28;20406;-73
2022/09/14 04:06:54;;;;;;;46.90;24.10;;;18.40;99.90;;;17.68;100.00;96355.56;5081617;28;20391;-74
2022/09/14 04:09:21;;;;;;;68.72;29.73;;;18.40;99.90;;;17.73;100.00;96362.66;5079900;28;20953;-74
2022/09/14 04:11:47;;;;;;;41.55;21.80;;;18.40;99.90;;;17.74;100.00;96348.19;5081143;28;20416;-73
2022/09/14 04:14:13;;;;;;;59.10;29.02;;;18.50;99.90;;;17.81;100.00;96347.66;5080973;28;20425;-74
2022/09/14 04:16:39;;;;;;;56.45;28.38;;;18.50;99.90;;;17.81;100.00;96343.09;5078269;28;20390;-73
2022/09/14 04:19:05;;;;;;;59.80;28.20;;;18.50;99.90;;;17.66;100.00;96327.59;5084305;28;20757;-73
2022/09/14 04:21:32;;;;;;;51.35;24.95;;;18.40;99.90;;;17.63;100.00;96336.25;5088068;28;20399;-74
2022/09/14 04:23:58;;;;;;;66.30;28.42;;;18.40;99.90;;;17.63;100.00;96339.72;5087098;28;20397;-73
2022/09/14 04:26:28;;;;;;;57.40;26.23;;;18.30;99.90;;;17.59;100.00;96341.41;5088677;28;20955;-74
2022/09/14 04:28:55;;;;;;;45.92;24.50;;;18.40;99.90;;;17.64;100.00;96348.53;5089383;28;20759;-74
2022/09/14 04:31:21;;;;;;;57.08;26.60;;;18.30;99.90;;;17.58;100.00;96352.47;5086689;28;20408;-74
2022/09/14 04:33:49;;;;;;;56.78;27.88;;;18.30;99.90;;;17.63;100.00;96347.72;5085933;28;20458;-74
2022/09/14 04:36:21;;;;;;;63.03;27.52;;;18.40;99.90;;;17.66;100.00;96349.00;5081533;28;20456;-74
2022/09/14 04:38:51;;;;;;;55.38;27.73;;;18.40;99.90;;;17.68;100.00;96336.84;5080584;28;20999;-74
2022/09/14 04:41:22;;;;;;;55.58;27.33;;;18.40;99.90;;;17.69;100.00;96337.63;5081076;28;20510;-75
2022/09/14 04:43:51;;;;;;;55.75;26.77;;;18.30;99.90;;;17.59;100.00;96335.28;5078968;28;20394;-76
2022/09/14 04:46:21;;;;;;;53.07;26.40;;;18.30;99.90;;;17.59;100.00;96341.41;5080916;28;20416;-74
2022/09/14 04:48:48;;;;;;;50.60;25.25;;;18.30;99.90;;;17.63;100.00;96336.25;5081106;28;20413;-75
2022/09/14 04:51:17;;;;;;;70.47;30.05;;;18.30;99.90;;;17.68;100.00;96346.75;5081063;28;20410;-75
2022/09/14 04:53:44;;;;;;;62.78;30.10;;;18.40;99.90;;;17.76;100.00;96343.25;5078450;28;20426;-75
2022/09/14 04:56:12;;;;;;;62.10;27.95;;;18.40;99.90;;;17.70;100.00;96348.00;5079374;28;20394;-72
2022/09/14 04:58:42;;;;;;;57.85;26.25;;;18.40;99.90;;;17.69;100.00;96342.97;5073022;28;20756;-76
2022/09/14 05:01:12;;;;;;;65.83;28.27;;;18.40;99.90;;;17.72;100.00;96345.81;5070443;28;20407;-76
2022/09/14 05:03:39;;;;;;;53.30;25.88;;;18.40;99.90;;;17.74;100.00;96350.84;5069548;28;20400;-75
2022/09/14 05:06:08;;;;;;;49.75;26.20;;;18.40;99.90;;;17.75;100.00;96344.38;5070394;28;20399;-76
2022/09/14 05:08:35;;;;;;;43.17;23.20;;;18.40;99.90;;;17.77;100.00;96342.16;5070296;28;20396;-74
2022/09/14 05:11:01;;;;;;;55.78;26.42;;;18.50;99.90;;;17.82;100.00;96349.25;5070435;28;20403;-74
2022/09/14 05:13:27;;;;;;;54.67;27.13;;;18.50;99.90;;;17.83;100.00;96353.47;5069651;28;20908;-74
2022/09/14 05:15:54;;;;;;;47.45;24.45;;;18.50;99.90;;;17.88;100.00;96351.41;5070373;28;20441;-74
2022/09/14 05:18:21;;;;;;;43.85;22.92;;;18.50;99.90;;;17.94;100.00;96355.47;5070446;28;20398;-74
2022/09/14 05:20:47;;;;;;;55.40;26.13;;;18.60;99.90;;;17.94;100.00;96346.66;5070270;28;20494;-74
2022/09/14 05:23:13;;;;;;;48.03;24.20;;;18.60;99.90;;;17.92;100.00;96351.53;5069649;28;20487;-74
2022/09/14 05:25:39;;;;;;;49.77;24.33;;;18.60;99.90;;;17.93;100.00;96356.56;5070245;28;20407;-74
2022/09/14 05:28:05;;;;;;;53.90;26.33;;;18.60;99.90;;;17.94;100.00;96362.72;5070224;28;20407;-74
2022/09/14 05:30:31;;;;;;;48.93;25.03;;;18.60;99.90;;;17.99;100.00;96368.66;5070127;28;20419;-73
2022/09/14 05:32:56;;;;;;;57.08;27.80;;;18.60;99.90;;;17.97;100.00;96373.56;5069600;28;20407;-74
2022/09/14 05:35:24;;;;;;;69.28;28.73;;;18.60;99.90;;;17.98;100.00;96380.47;5070010;28;20412;-74
2022/09/14 05:37:49;;;;;;;63.05;30.13;;;18.60;99.90;;;17.98;100.00;96383.16;5068782;28;20804;-72
2022/09/14 05:40:16;;;;;;;65.75;29.13;;;18.60;99.90;;;17.97;100.00;96381.59;5070079;28;20438;-74
2022/09/14 05:42:41;;;;;;;61.58;27.77;;;18.70;99.90;;;18.01;100.00;96384.41;5069641;28;20399;-73
2022/09/14 05:45:08;;;;;;;68.67;28.60;;;18.70;99.90;;;18.02;100.00;96384.09;5069921;28;20533;-72
2022/09/14 05:47:34;;;;;;;67.57;26.47;;;18.70;99.90;;;18.04;100.00;96389.91;5069905;28;20446;-74
2022/09/14 05:50:00;;;;;;;62.27;26.70;;;18.70;99.90;;;18.07;100.00;96378.53;5069913;28;20439;-73
2022/09/14 05:52:29;;;;;;;65.73;29.33;;;18.70;99.90;;;18.10;100.00;96377.91;5069797;28;20417;-73
2022/09/14 05:54:55;;;;;;;58.05;28.83;;;18.80;99.90;;;18.13;100.00;96371.09;5085176;28;20414;-74
2022/09/14 05:57:21;;;;;;;54.47;26.20;;;18.70;99.90;;;18.15;100.00;96355.50;5087989;28;20410;-74
2022/09/14 05:59:47;;;;;;;43.22;23.73;;;18.80;99.90;;;18.21;100.00;96361.44;5090148;28;20463;-74
2022/09/14 06:02:13;;;;;;;65.25;27.23;;;18.80;99.90;;;18.23;100.00;96338.59;5089823;28;20406;-74
2022/09/14 06:04:39;;;;;;;54.65;25.10;;;18.90;99.90;;;18.29;100.00;96355.25;5089743;28;20455;-74
2022/09/14 06:07:04;;;;;;;63.85;26.52;;;18.90;99.90;;;18.36;100.00;96376.97;5092722;28;20739;-74
2022/09/14 06:09:32;;;;;;;72.55;30.67;;;19.00;99.90;;;18.38;100.00;96386.25;5089808;28;20428;-74
2022/09/14 06:11:57;;;;;;;60.90;27.40;;;19.00;99.90;;;18.39;100.00;96374.44;5092588;28;20413;-72
2022/09/14 06:14:23;;;;;;;38.20;20.67;;;19.00;99.90;;;18.47;100.00;96380.84;5093112;28;20445;-73
2022/09/14 06:16:49;;;;;;;62.28;27.27;;;19.10;99.90;;;18.44;100.00;96370.75;5109407;28;20412;-74
2022/09/14 06:19:15;;;;;;;54.40;26.43;;;19.10;99.90;;;18.43;100.00;96369.97;5093712;28;20903;-74
2022/09/14 06:21:42;;;;;;;55.53;26.58;;;19.00;99.90;;;18.43;100.00;96374.53;5093730;28;20451;-72
2022/09/14 06:24:11;;;;;;;55.35;26.42;;;19.10;99.90;;;18.43;100.00;96388.72;5093019;28;20443;-72
2022/09/14 06:26:38;;;;;;;48.85;23.73;;;19.00;99.90;;;18.53;100.00;96385.69;5093681;28;20390;-72
2022/09/14 06:29:04;;;;;;;37.63;20.67;;;19.10;99.90;;;18.60;100.00;96382.50;5093663;28;20412;-72
2022/09/14 06:31:30;;;;;;;51.40;23.67;;;19.20;99.90;;;18.59;100.00;96394.34;5093478;28;20518;-72
2022/09/14 06:33:56;;;;;;;53.35;24.42;;;19.20;99.90;;;18.60;100.00;96385.19;5092836;28;20526;-72
2022/09/14 06:36:25;;;;;;;42.53;21.63;;;19.20;99.90;;;18.71;100.00;96382.91;5093498;28;20456;-72
2022/09/14 06:38:52;;;;;;;43.03;21.57;;;19.30;99.90;;;18.71;100.00;96386.38;5093421;28;20394;-72
2022/09/14 06:41:22;;;;;;;44.38;22.23;;;19.30;99.90;;;18.70;100.00;96386.69;5093341;28;20410;-72
2022/09/14 06:43:49;;;;;;;40.23;20.37;;;19.30;99.90;;;18.63;100.00;96381.88;5092774;28;20412;-72
2022/09/14 06:46:18;;;;;;;43.28;21.02;;;19.20;99.90;;;18.65;100.00;96386.88;5093055;28;20481;-74
2022/09/14 06:48:47;;;;;;;39.50;20.60;;;19.20;99.90;;;18.61;100.00;96375.25;5088826;28;20481;-72
2022/09/14 06:51:17;;;;;;;42.35;20.67;;;19.20;99.90;;;18.57;100.00;96377.03;5089628;28;20417;-72
2022/09/14 06:53:44;;;;;;;35.43;19.50;;;19.20;99.90;;;18.66;100.00;96370.47;5083972;28;20406;-73
2022/09/14 06:56:10;;;;;;;36.70;19.37;;;19.20;99.90;;;18.62;100.00;96366.88;5092985;28;20856;-74
2022/09/14 06:58:36;;;;;;;42.00;18.95;;;19.20;99.90;;;18.57;100.00;96364.38;5088938;28;20414;-70
2022/09/14 07:01:07;;;;;;;37.05;17.98;;;19.10;99.90;;;18.62;100.00;96363.41;5087521;28;20767;-73
2022/09/14 07:03:37;;;;;;;36.50;18.17;;;19.20;99.90;;;18.59;100.00;96354.13;5083094;28;20412;-72
2022/09/14 07:06:05;;;;;;;37.42;18.60;;;19.20;99.90;;;18.61;100.00;96361.84;5092397;28;20402;-72
2022/09/14 07:08:32;;;;;;;31.23;17.70;;;19.20;99.90;;;18.63;100.00;96365.00;5092763;28;20405;-71
2022/09/14 07:10:59;;;;;;;44.15;19.33;;;19.20;99.90;;;18.70;100.00;96375.97;5092679;28;20398;-72
2022/09/14 07:13:26;;;;;;;34.97;16.95;;;19.30;99.90;;;18.66;100.00;96378.50;5092057;28;20488;-72
2022/09/14 07:15:52;;;;;;;30.30;15.27;;;19.20;99.90;;;18.66;100.00;96383.09;5092383;28;20405;-72
2022/09/14 07:18:21;;;;;;;35.30;17.95;;;19.30;99.90;;;18.78;100.00;96380.50;5092645;28;20429;-72
2022/09/14 07:20:47;;;;;;;38.80;18.98;;;19.40;99.90;;;18.91;100.00;96385.56;5092602;28;21083;-72
2022/09/14 07:23:13;;;;;;;32.22;17.13;;;19.50;99.90;;;19.00;100.00;96382.81;5092040;28;20402;-71
2022/09/14 07:25:39;;;;;;;21.52;13.35;;;19.60;99.90;;;19.11;100.00;96389.34;5092549;28;20485;-72
2022/09/14 07:28:05;;;;;;;33.40;15.57;;;19.60;99.90;;;19.03;100.00;96392.88;5092547;28;20563;-72
2022/09/14 07:30:35;;;;;;;26.60;13.13;;;19.60;99.90;;;19.07;100.00;96391.13;5092468;28;20398;-72
2022/09/14 07:33:00;;;;;;;31.50;15.67;;;19.60;99.90;;;19.09;100.00;96388.13;5091948;28;20448;-71
2022/09/14 07:35:28;;;;;;;29.37;15.10;;;19.70;99.90;;;19.11;100.00;96372.44;5092215;28;20425;-72
2022/09/14 07:37:54;;;;;;;31.05;14.95;;;19.70;99.90;;;19.11;100.00;96378.59;5092265;28;20402;-71
2022/09/14 07:40:21;;;;;;;27.08;12.82;;;19.70;99.90;;;19.17;100.00;96388.00;5092300;28;20408;-72
2022/09/14 07:42:50;;;;;;;23.60;12.02;;;19.70;99.90;;;19.22;100.00;96387.03;5091714;28;20403;-72
2022/09/14 07:45:16;;;;;;;24.57;13.37;;;19.70;99.90;;;19.22;100.00;96390.50;5092142;28;20405;-72
2022/09/14 07:47:42;;;;;;;24.13;13.13;;;19.80;99.90;;;19.25;100.00;96389.81;5092183;28;20398;-72
2022/09/14 07:50:08;;;;;;;28.53;12.50;;;19.80;99.90;;;19.25;100.00;96392.50;5092057;28;20893;-72
2022/09/14 07:52:36;;;;;;;26.13;13.13;;;19.80;99.90;;;19.33;100.00;96391.63;5091921;28;20489;-73
2022/09/14 07:55:02;;;;;;;18.38;10.57;;;19.90;99.90;;;19.34;100.00;96395.09;5091634;28;20488;-74
2022/09/14 07:57:28;;;;;;;23.27;11.45;;;20.00;99.90;;;19.41;100.00;96395.34;5091791;28;20416;-73
2022/09/14 07:59:54;;;;;;;20.60;11.82;;;20.00;99.90;;;19.46;100.00;96410.47;5091915;28;20425;-73
2022/09/14 08:02:22;;;;;;;21.67;11.20;;;20.00;99.90;;;19.56;100.00;96420.81;5091646;28;20398;-71
2022/09/14 08:04:48;;;;;;;21.33;11.00;;;20.10;99.90;;;19.69;100.00;96414.38;5086682;22;20431;-74
2022/09/14 08:07:13;;;;;;;20.02;11.00;;;20.20;99.90;;;19.86;100.00;96411.47;5070377;28;20481;-74
2022/09/14 08:09:41;;;;;;;15.55;8.73;;;20.40;99.90;;;19.78;100.00;96420.41;5071149;28;20434;-74
2022/09/14 08:12:07;;;;;;;16.27;8.47;;;20.30;99.90;;;19.81;100.00;96422.44;5071262;28;20487;-74
2022/09/14 08:14:33;;;;;;;18.33;9.27;;;20.30;99.90;;;19.87;100.00;96428.38;5070627;28;20428;-73
2022/09/14 08:16:59;;;;;;;17.02;8.75;;;20.30;99.90;;;19.87;100.00;96413.03;5071298;28;20399;-74
2022/09/14 08:19:25;;;;;;;19.73;8.40;;;20.40;99.90;;;19.89;100.00;96423.44;5071082;28;20429;-74
2022/09/14 08:21:51;;;;;;;13.20;8.00;;;20.40;99.90;;;19.97;100.00;96427.94;5053100;28;20427;-74
2022/09/14 08:24:20;;;;;;;12.98;7.95;;;20.50;99.90;;;20.20;100.00;96420.22;5070584;28;20403;-73
2022/09/14 08:26:48;;;;;;;13.43;7.35;;;20.70;99.90;;;20.25;100.00;96441.50;5071124;28;20797;-74
2022/09/14 08:29:16;;;;;;;15.83;7.67;;;20.70;99.90;;;20.31;100.00;96450.91;5070383;28;20490;-75
2022/09/14 08:31:44;;;;;;;13.52;6.25;;;20.90;99.90;;;20.28;100.00;96449.69;5071027;28;20412;-73
2022/09/14 08:34:10;;;;;;;16.25;6.97;;;20.70;99.90;;;20.38;100.00;96443.09;5070323;28;20454;-73
2022/09/14 08:36:39;;;;;;;13.90;5.80;;;20.90;99.90;;;20.29;100.00;96456.63;5052931;28;20408;-73
2022/09/14 08:39:08;;;;;;;8.80;4.80;;;20.80;99.90;;;20.01;100.00;96461.84;5076690;28;20451;-75
2022/09/14 08:41:39;;;;;;;10.43;5.50;;;20.60;99.90;;;20.00;100.00;96460.28;5080510;28;20402;-74
2022/09/14 08:44:16;;;;;;;10.50;6.50;;;20.60;99.90;;;20.13;100.00;96465.69;5078608;28;20516;-74
2022/09/14 08:46:46;;;;;;;11.85;5.82;;;20.60;99.90;;;20.01;100.00;96466.44;5090709;28;20470;-75
2022/09/14 08:49:45;;;;;;;10.65;6.40;;;20.60;99.90;;;20.10;100.00;96488.63;5091079;28;20403;-74
2022/09/14 08:52:24;;;;;;;9.95;6.03;;;20.60;99.90;;;20.50;100.00;96494.19;5089118;28;20477;-73
2022/09/14 08:54:54;;;;;;;9.20;5.60;;;20.90;99.90;;;20.67;100.00;96482.41;5074295;28;20401;-73
2022/09/14 08:57:32;;;;;;;10.27;5.65;;;21.10;99.90;;;20.79;100.00;96471.63;5070021;28;20419;-73
2022/09/14 09:00:13;;;;;;;9.67;5.17;;;21.30;99.90;;;20.76;100.00;96458.84;5070585;28;20471;-73
2022/09/14 09:03:18;;;;;;;7.78;4.90;;;21.20;99.90;;;20.74;100.00;96450.34;5065468;28;20441;-74
2022/09/14 09:05:51;;;;;;;7.55;4.20;;;21.20;99.90;;;20.66;100.00;96456.63;5070344;28;20395;-74
2022/09/14 09:08:26;;;;;;;9.52;4.47;;;21.20;99.90;;;20.76;100.00;96461.53;5070566;28;20750;-74
2022/09/14 09:10:53;;;;;;;6.65;4.05;;;21.20;99.90;;;20.62;100.00;96459.22;5070389;28;20392;-74
2022/09/14 09:13:25;;;;;;;12.27;4.28;;;21.20;99.90;;;20.57;100.00;96458.66;5069941;28;20403;-75
2022/09/14 09:15:56;;;;;;;9.47;4.10;;;21.10;99.90;;;20.74;100.00;96461.13;5070265;28;20492;-75
2022/09/14 09:18:38;;;;;;;9.80;3.30;;;21.20;99.90;;;20.70;100.00;96461.00;5070414;28;20489;-75
2022/09/14 09:21:10;;;;;;;5.22;3.70;;;21.30;99.90;;;20.86;100.00;96469.16;5070394;28;20901;-73
2022/09/14 09:23:37;;;;;;;7.18;3.83;;;21.30;99.90;;;21.10;100.00;96468.31;5069763;28;20479;-74
2022/09/14 09:26:06;;;;;;;7.38;3.42;;;21.60;99.90;;;21.30;100.00;96463.91;5070298;28;20396;-74
2022/09/14 09:28:33;;;;;;;5.32;3.30;;;21.70;99.90;;;21.46;100.00;96467.44;5070265;28;20923;-74
2022/09/14 09:31:06;;;;;;;4.85;2.90;;;21.90;99.90;;;21.53;100.00;96456.84;5070286;28;20449;-75
2022/09/14 09:33:32;;;;;;;7.25;3.35;;;22.00;99.90;;;21.68;100.00;96455.31;5069597;28;20392;-75
2022/09/14 09:35:58;;;;;;;7.95;3.03;;;22.10;99.90;;;21.81;100.00;96456.81;5070275;28;20399;-74
2022/09/14 09:38:27;;;;;;;6.30;2.70;;;22.30;99.90;;;21.82;100.00;96439.50;5070236;28;20410;-74
2022/09/14 09:40:57;;;;;;;4.22;2.90;;;22.40;99.90;;;21.78;97.60;96446.72;5074286;28;20406;-75
2022/09/14 09:43:24;;;;;;;10.60;2.80;;;22.30;99.90;;;21.75;97.41;96444.72;5073797;28;20392;-76
2022/09/14 09:45:55;;;;;;;5.88;3.05;;;22.30;99.90;;;21.96;97.68;96439.88;5074258;28;20387;-74
2022/09/14 09:48:27;;;;;;;5.00;2.60;;;22.40;99.90;;;22.00;98.19;96428.09;5074224;28;20395;-75
2022/09/14 09:51:08;;;;;;;6.45;3.30;;;22.50;99.90;;;21.99;96.75;96429.22;5074182;28;20967;-75
2022/09/14 09:53:51;;;;;;;7.53;3.03;;;22.60;99.90;;;22.08;94.53;96420.97;5073395;28;20407;-74
2022/09/14 09:56:24;;;;;;;4.23;2.37;;;22.60;99.90;;;22.27;96.19;96417.53;5073996;28;20400;-74
2022/09/14 09:58:50;;;;;;;10.63;2.65;;;22.70;99.90;;;22.24;97.29;96408.25;5073919;28;21042;-74
2022/09/14 10:01:21;;;;;;;5.97;2.80;;;22.80;99.90;;;22.33;95.42;96399.97;5073151;28;20425;-74
2022/09/14 10:04:14;;;;;;;8.82;2.95;;;22.80;99.90;;;22.56;98.40;96394.69;5067899;28;20400;-74
2022/09/14 10:06:42;;;;;;;5.75;2.80;;;23.00;99.90;;;22.93;92.38;96403.25;5069792;28;20491;-73
2022/09/14 10:09:15;;;;;;;6.97;2.45;;;23.30;99.90;;;22.91;92.92;96392.81;5068628;28;20396;-74
2022/09/14 10:11:42;;;;;;;5.70;2.33;;;23.40;99.90;;;22.82;84.28;96394.13;5073494;28;20445;-74
2022/09/14 10:14:23;;;;;;;8.50;2.63;;;23.30;99.90;;;23.06;87.49;96391.94;5071786;28;20447;-74